Time;durP1;ratioP1;P1;durP2;ratioP2;P2;SDS_P1;SDS_P2;PMS_P1;PMS_P2;Temp;Humidity;BMP_temperature;BMP_pressure;BME280_temperature;BME280_humidity;BME280_pressure;Samples;Min_cycle;Max_cycle;Signal;HPM_P1;HPM_P2
2023/08/09 00:00:14;;;;;;;;;;;15.40;99.90;;;;;;5019548;28;19926;-71
2023/08/09 00:02:42;;;;;;;;;;;15.30;99.90;;;;;;5020684;28;20380;-71
2023/08/09 00:05:10;;;;;;;;;;;15.30;99.90;;;;;;5033940;28;19921;-71
2023/08/09 00:07:37;;;;;;;;;;;15.30;99.90;;;;;;5033775;28;19953;-71
2023/08/09 00:10:06;;;;;;;;;;;15.30;99.90;;;;;;5034155;28;20015;-71
2023/08/09 00:12:34;;;;;;;;;;;15.30;99.90;;;;;;5034112;28;20003;-71
2023/08/09 00:15:02;;;;;;;;;;;15.30;99.90;;;;;;5033737;28;19921;-70
2023/08/09 00:17:31;;;;;;;;;;;15.30;99.90;;;;;;5033999;28;19921;-71
2023/08/09 00:19:59;;;;;;;;;;;15.40;99.90;;;;;;5033793;28;19925;-71
2023/08/09 00:22:27;;;;;;;;;;;15.30;99.90;;;;;;5033704;28;19921;-71
2023/08/09 00:24:55;;;;;;;;;;;15.40;99.90;;;;;;5033783;28;19927;-70
2023/08/09 00:27:23;;;;;;;;;;;15.40;99.90;;;;;;5033821;28;19921;-71
2023/08/09 00:29:51;;;;;;;;;;;15.40;99.90;;;;;;5021757;28;19921;-71
2023/08/09 00:32:18;;;;;;;;;;;15.30;99.90;;;;;;5016303;28;19928;-70
2023/08/09 00:34:48;;;;;;;;;;;15.40;99.90;;;;;;5033716;28;19928;-70
2023/08/09 00:37:16;;;;;;;;;;;15.40;99.90;;;;;;5033296;28;19925;-70
2023/08/09 00:39:43;;;;;;;;;;;15.40;99.90;;;;;;5033474;28;19975;-70
2023/08/09 00:42:12;;;;;;;;;;;15.30;99.90;;;;;;5033353;28;20437;-70
2023/08/09 00:44:40;;;;;;;;;;;15.20;99.90;;;;;;5033476;28;20031;-71
2023/08/09 00:47:09;;;;;;;;;;;15.20;99.90;;;;;;5033074;28;19921;-70
2023/08/09 00:49:37;;;;;;;;;;;15.20;99.90;;;;;;5033316;28;19921;-71
2023/08/09 00:52:07;;;;;;;;;;;15.10;99.90;;;;;;5032948;28;19921;-71
2023/08/09 00:54:34;;;;;;;;;;;15.10;99.90;;;;;;5033407;28;19921;-71
2023/08/09 00:57:02;;;;;;;;;;;15.20;99.90;;;;;;5033311;28;20356;-71
2023/08/09 00:59:30;;;;;;;;;;;15.10;99.90;;;;;;5024002;28;19932;-71
2023/08/09 01:01:58;;;;;;;;;;;15.10;99.90;;;;;;5013267;28;19923;-71
2023/08/09 01:04:26;;;;;;;;;;;15.10;99.90;;;;;;5032991;28;20269;-71
2023/08/09 01:06:57;;;;;;;;;;;15.10;99.90;;;;;;5032894;28;19929;-72
2023/08/09 01:09:27;;;;;;;;;;;15.10;99.90;;;;;;5032742;28;19922;-72
2023/08/09 01:11:55;;;;;;;;;;;15.10;99.90;;;;;;5033405;28;19920;-71
2023/08/09 01:14:24;;;;;;;;;;;15.10;99.90;;;;;;5033320;28;19929;-71
2023/08/09 01:16:53;;;;;;;;;;;15.10;99.90;;;;;;5032745;28;20300;-71
2023/08/09 01:19:30;;;;;;;;;;;15.10;99.90;;;;;;5032051;28;20039;-71
2023/08/09 01:21:58;;;;;;;;;;;15.10;99.90;;;;;;5032852;28;19971;-71
2023/08/09 01:24:27;;;;;;;;;;;15.00;99.90;;;;;;5032692;28;20121;-71
2023/08/09 01:26:55;;;;;;;;;;;15.10;99.90;;;;;;5032507;28;20302;-71
2023/08/09 01:29:28;;;;;;;;;;;15.10;99.90;;;;;;5023678;28;19921;-72
2023/08/09 01:31:56;;;;;;;;;;;15.20;99.90;;;;;;5013122;28;19980;-71
2023/08/09 01:34:24;;;;;;;;;;;15.10;99.90;;;;;;5031598;28;19975;-71
2023/08/09 01:36:52;;;;;;;;;;;15.10;99.90;;;;;;5032513;28;20368;-71
2023/08/09 01:39:21;;;;;;;;;;;15.10;99.90;;;;;;5032149;28;19925;-71
2023/08/09 01:41:51;;;;;;;;;;;15.10;99.90;;;;;;5032446;28;19925;-72
2023/08/09 01:44:20;;;;;;;;;;;15.10;99.90;;;;;;5032225;28;19928;-71
2023/08/09 01:46:47;;;;;;;;;;;15.10;99.90;;;;;;5032101;28;20350;-71
2023/08/09 01:49:17;;;;;;;;;;;15.10;99.90;;;;;;5031880;28;19921;-71
2023/08/09 01:51:46;;;;;;;;;;;15.10;99.90;;;;;;5032216;28;19924;-71
2023/08/09 01:54:14;;;;;;;;;;;15.20;99.90;;;;;;5031818;28;19921;-71
2023/08/09 01:56:42;;;;;;;;;;;15.20;99.90;;;;;;5032123;28;20144;-71
2023/08/09 01:59:11;;;;;;;;;;;15.20;99.90;;;;;;5025450;28;19922;-71
2023/08/09 02:01:38;;;;;;;;;;;15.20;99.90;;;;;;5012296;28;19972;-72
2023/08/09 02:04:09;;;;;;;;;;;15.20;99.90;;;;;;5028544;28;19928;-72
2023/08/09 02:06:38;;;;;;;;;;;15.20;99.90;;;;;;5031629;28;19983;-71
2023/08/09 02:09:07;;;;;;;;;;;15.20;99.90;;;;;;5031641;28;19921;-71
2023/08/09 02:11:35;;;;;;;;;;;15.20;99.90;;;;;;5016301;28;19921;-70
2023/08/09 02:14:03;;;;;;;;;;;15.20;99.90;;;;;;5031848;28;20311;-70
2023/08/09 02:16:32;;;;;;;;;;;15.30;99.90;;;;;;5031660;28;20295;-71
2023/08/09 02:19:01;;;;;;;;;;;15.30;99.90;;;;;;5031552;28;20168;-70
2023/08/09 02:21:29;;;;;;;;;;;15.20;99.90;;;;;;5031693;28;19936;-70
2023/08/09 02:23:57;;;;;;;;;;;15.20;99.90;;;;;;5031748;28;19974;-70
2023/08/09 02:26:27;;;;;;;;;;;15.20;99.90;;;;;;5031550;28;19924;-70
2023/08/09 02:28:54;;;;;;;;;;;15.20;99.90;;;;;;5027199;28;19921;-71
2023/08/09 02:31:22;;;;;;;;;;;15.20;99.90;;;;;;5010941;28;20346;-71
2023/08/09 02:33:51;;;;;;;;;;;15.30;99.90;;;;;;5025303;28;19921;-71
2023/08/09 02:36:19;;;;;;;;;;;15.20;99.90;;;;;;5031381;28;20288;-71
2023/08/09 02:38:47;;;;;;;;;;;15.30;99.90;;;;;;5031319;28;19928;-70
2023/08/09 02:41:15;;;;;;;;;;;15.30;99.90;;;;;;5031464;28;20359;-71
2023/08/09 02:43:43;;;;;;;;;;;15.20;99.90;;;;;;5031420;28;19970;-71
2023/08/09 02:46:12;;;;;;;;;;;15.10;99.90;;;;;;5031116;28;19937;-70
2023/08/09 02:48:40;;;;;;;;;;;15.10;99.90;;;;;;5031345;28;20334;-70
2023/08/09 02:51:09;;;;;;;;;;;15.20;99.90;;;;;;5031433;28;19921;-71
2023/08/09 02:53:38;;;;;;;;;;;15.20;99.90;;;;;;5022978;28;19921;-70
2023/08/09 02:56:05;;;;;;;;;;;15.20;99.90;;;;;;5031258;28;20438;-71
2023/08/09 02:58:33;;;;;;;;;;;15.20;99.90;;;;;;5029484;28;19944;-70
2023/08/09 03:01:01;;;;;;;;;;;15.10;99.90;;;;;;5011490;28;19925;-70
2023/08/09 03:03:29;;;;;;;;;;;15.10;99.90;;;;;;5021969;28;19920;-70
2023/08/09 03:05:57;;;;;;;;;;;15.00;99.90;;;;;;5031341;28;20346;-70
2023/08/09 03:08:26;;;;;;;;;;;15.00;99.90;;;;;;5030772;28;19921;-71
2023/08/09 03:10:54;;;;;;;;;;;15.00;99.90;;;;;;5031310;28;19928;-71
2023/08/09 03:13:22;;;;;;;;;;;15.00;99.90;;;;;;5031365;28;20394;-71
2023/08/09 03:15:51;;;;;;;;;;;15.00;99.90;;;;;;5031240;28;19921;-71
2023/08/09 03:18:19;;;;;;;;;;;15.00;99.90;;;;;;5030759;28;19928;-71
2023/08/09 03:20:48;;;;;;;;;;;15.00;99.90;;;;;;5031068;28;19921;-71
2023/08/09 03:23:15;;;;;;;;;;;15.00;99.90;;;;;;5030929;28;19928;-71
2023/08/09 03:25:45;;;;;;;;;;;15.00;99.90;;;;;;5031130;28;19921;-71
2023/08/09 03:28:12;;;;;;;;;;;15.00;99.90;;;;;;5030918;28;19924;-71
2023/08/09 03:30:40;;;;;;;;;;;15.00;99.90;;;;;;5011302;28;19927;-71
2023/08/09 03:33:08;;;;;;;;;;;15.00;99.90;;;;;;5018424;28;20376;-71
2023/08/09 03:35:36;;;;;;;;;;;15.00;99.90;;;;;;5030858;28;20415;-71
2023/08/09 03:38:05;;;;;;;;;;;14.90;99.90;;;;;;5030699;28;19944;-71
2023/08/09 03:40:32;;;;;;;;;;;14.90;99.90;;;;;;5030823;28;19921;-71
2023/08/09 03:43:02;;;;;;;;;;;14.90;99.90;;;;;;5031628;28;20347;-71
2023/08/09 03:45:29;;;;;;;;;;;14.90;99.90;;;;;;5034566;28;20213;-71
2023/08/09 03:47:57;;;;;;;;;;;14.90;99.90;;;;;;5034388;28;20379;-71
2023/08/09 03:50:25;;;;;;;;;;;15.00;99.90;;;;;;5034376;28;19983;-71
2023/08/09 03:52:53;;;;;;;;;;;15.00;99.90;;;;;;5034714;28;19921;-71
2023/08/09 03:55:21;;;;;;;;;;;15.00;99.90;;;;;;5034195;28;19921;-71
2023/08/09 03:57:49;;;;;;;;;;;15.00;99.90;;;;;;5034243;28;20486;-71
2023/08/09 04:00:22;;;;;;;;;;;15.00;99.90;;;;;;5018940;28;19944;-71
2023/08/09 04:02:50;;;;;;;;;;;15.10;99.90;;;;;;5011798;28;19921;-71
2023/08/09 04:05:19;;;;;;;;;;;15.00;99.90;;;;;;5033974;28;20372;-71
2023/08/09 04:07:47;;;;;;;;;;;15.00;99.90;;;;;;5034111;28;20016;-72
2023/08/09 04:10:15;;;;;;;;;;;15.10;99.90;;;;;;5034201;28;19925;-71
2023/08/09 04:12:43;;;;;;;;;;;15.10;99.90;;;;;;5033741;28;20404;-71
2023/08/09 04:15:11;;;;;;;;;;;15.00;99.90;;;;;;5034125;28;20372;-71
2023/08/09 04:17:40;;;;;;;;;;;15.10;99.90;;;;;;5033581;28;20797;-71
2023/08/09 04:20:11;;;;;;;;;;;15.10;99.90;;;;;;5034395;28;19925;-72
2023/08/09 04:22:39;;;;;;;;;;;15.10;99.90;;;;;;5033800;28;19940;-72
2023/08/09 04:25:10;;;;;;;;;;;15.10;99.90;;;;;;5033875;28;19927;-71
2023/08/09 04:27:38;;;;;;;;;;;15.10;99.90;;;;;;5033423;28;20021;-71
2023/08/09 04:30:09;;;;;;;;;;;15.10;99.90;;;;;;5018824;28;19928;-72
2023/08/09 04:32:38;;;;;;;;;;;15.10;99.90;;;;;;5013765;28;19921;-71
2023/08/09 04:35:08;;;;;;;;;;;15.10;99.90;;;;;;5013968;28;19921;-71
2023/08/09 04:37:35;;;;;;;;;;;15.20;99.90;;;;;;5013243;28;20434;-71
2023/08/09 04:40:07;;;;;;;;;;;15.20;99.90;;;;;;5013919;28;19932;-71
2023/08/09 04:42:35;;;;;;;;;;;15.20;99.90;;;;;;5013687;28;19921;-72
2023/08/09 04:45:03;;;;;;;;;;;15.20;99.90;;;;;;5013662;28;20454;-72
2023/08/09 04:47:32;;;;;;;;;;;15.30;99.90;;;;;;5013298;28;20384;-71
2023/08/09 04:50:00;;;;;;;;;;;15.30;99.90;;;;;;5013487;28;20369;-71
2023/08/09 04:52:29;;;;;;;;;;;15.30;99.90;;;;;;5013153;28;19925;-71
2023/08/09 04:54:58;;;;;;;;;;;15.40;99.90;;;;;;5012519;28;19925;-71
2023/08/09 04:57:25;;;;;;;;;;;15.40;99.90;;;;;;5013178;28;19925;-72
2023/08/09 04:59:53;;;;;;;;;;;15.40;99.90;;;;;;5013182;28;20412;-72
2023/08/09 05:02:21;;;;;;;;;;;15.50;99.90;;;;;;5013245;28;20292;-72
2023/08/09 05:04:49;;;;;;;;;;;15.50;99.90;;;;;;5005426;28;19921;-72
2023/08/09 05:07:16;;;;;;;;;;;15.50;99.90;;;;;;5013137;28;19921;-71
2023/08/09 05:09:46;;;;;;;;;;;15.50;99.90;;;;;;5012735;28;19926;-72
2023/08/09 05:12:13;;;;;;;;;;;15.50;99.90;;;;;;5013093;28;19929;-72
2023/08/09 05:14:41;;;;;;;;;;;15.60;99.90;;;;;;5012988;28;19932;-72
2023/08/09 05:17:09;;;;;;;;;;;15.60;99.90;;;;;;5012931;28;19921;-72
2023/08/09 05:19:37;;;;;;;;;;;15.70;99.90;;;;;;5012738;28;19921;-72
2023/08/09 05:22:05;;;;;;;;;;;15.70;99.90;;;;;;5013014;28;19928;-72
2023/08/09 05:24:32;;;;;;;;;;;15.80;99.90;;;;;;5012792;28;19925;-72
2023/08/09 05:27:02;;;;;;;;;;;15.80;99.90;;;;;;5012963;28;19922;-72
2023/08/09 05:29:30;;;;;;;;;;;15.80;99.90;;;;;;5012168;28;19925;-72
2023/08/09 05:31:58;;;;;;;;;;;15.90;99.90;;;;;;5017211;28;19928;-72
2023/08/09 05:34:26;;;;;;;;;;;15.90;99.90;;;;;;5032428;28;19999;-72
2023/08/09 05:36:54;;;;;;;;;;;15.90;99.90;;;;;;5032569;28;19952;-72
2023/08/09 05:39:22;;;;;;;;;;;16.00;99.90;;;;;;5032154;28;20390;-73
2023/08/09 05:41:50;;;;;;;;;;;16.00;99.90;;;;;;5032244;28;20335;-72
2023/08/09 05:44:19;;;;;;;;;;;16.10;99.90;;;;;;5032268;28;20299;-72
2023/08/09 05:46:46;;;;;;;;;;;16.00;99.90;;;;;;5032289;28;20022;-72
2023/08/09 05:49:14;;;;;;;;;;;16.10;99.90;;;;;;5031953;28;19921;-72
2023/08/09 05:51:42;;;;;;;;;;;16.20;99.90;;;;;;5031912;28;19925;-72
2023/08/09 05:54:10;;;;;;;;;;;16.20;99.90;;;;;;5032031;28;19928;-72
2023/08/09 05:56:38;;;;;;;;;;;16.30;99.90;;;;;;5031943;28;20388;-72
2023/08/09 05:59:06;;;;;;;;;;;16.30;99.90;;;;;;5026375;28;19930;-73
2023/08/09 06:01:35;;;;;;;;;;;16.20;99.90;;;;;;5012949;28;19932;-72
2023/08/09 06:04:03;;;;;;;;;;;16.20;99.90;;;;;;5031960;28;19921;-71
2023/08/09 06:06:32;;;;;;;;;;;16.20;99.90;;;;;;5031575;28;19933;-73
2023/08/09 06:08:59;;;;;;;;;;;16.20;99.90;;;;;;5031619;28;19971;-72
2023/08/09 06:11:27;;;;;;;;;;;16.30;99.90;;;;;;5031856;28;20384;-72
2023/08/09 06:13:55;;;;;;;;;;;16.30;99.90;;;;;;5015871;28;19921;-72
2023/08/09 06:16:23;;;;;;;;;;;16.30;99.90;;;;;;5031945;28;19921;-72
2023/08/09 06:18:52;;;;;;;;;;;16.30;99.90;;;;;;5031343;28;19967;-72
2023/08/09 06:21:20;;;;;;;;;;;16.30;99.90;;;;;;5031831;28;19931;-72
2023/08/09 06:23:48;;;;;;;;;;;16.30;99.90;;;;;;5031366;28;19928;-72
2023/08/09 06:26:15;;;;;;;;;;;16.40;99.90;;;;;;5031798;28;19921;-72
2023/08/09 06:28:43;;;;;;;;;;;16.40;99.90;;;;;;5028322;28;19921;-72
2023/08/09 06:31:11;;;;;;;;;;;16.30;99.90;;;;;;5011863;28;19921;-72
2023/08/09 06:33:42;;;;;;;;;;;16.40;99.90;;;;;;5029291;28;19921;-73
2023/08/09 06:36:12;;;;;;;;;;;16.40;99.90;;;;;;5031817;28;20253;-72
2023/08/09 06:38:40;;;;;;;;;;;16.30;99.90;;;;;;5031102;28;19928;-72
2023/08/09 06:41:08;;;;;;;;;;;16.40;99.90;;;;;;5031507;28;20398;-73
2023/08/09 06:43:36;;;;;;;;;;;16.40;99.90;;;;;;5031426;28;20441;-72
2023/08/09 06:46:04;;;;;;;;;;;16.50;99.90;;;;;;5031407;28;19925;-72
2023/08/09 06:48:32;;;;;;;;;;;16.50;99.90;;;;;;5031321;28;20011;-75
2023/08/09 06:51:01;;;;;;;;;;;16.50;99.90;;;;;;5031322;28;19925;-75
2023/08/09 06:53:30;;;;;;;;;;;16.50;99.90;;;;;;5031295;28;20343;-72
2023/08/09 06:55:57;;;;;;;;;;;16.60;99.90;;;;;;5015172;28;19944;-72
2023/08/09 06:58:25;;;;;;;;;;;16.60;99.90;;;;;;5030835;28;20374;-72
2023/08/09 07:00:53;;;;;;;;;;;16.60;99.90;;;;;;5011814;28;20418;-72
2023/08/09 07:03:21;;;;;;;;;;;16.60;99.90;;;;;;5026029;28;19921;-72
2023/08/09 07:05:49;;;;;;;;;;;16.70;99.90;;;;;;5031137;28;20007;-72
2023/08/09 07:08:16;;;;;;;;;;;16.70;99.90;;;;;;5030984;28;19924;-72
2023/08/09 07:10:46;;;;;;;;;;;16.70;99.90;;;;;;5031046;28;19924;-72
2023/08/09 07:13:13;;;;;;;;;;;16.80;99.90;;;;;;5031084;28;19928;-75
2023/08/09 07:15:41;;;;;;;;;;;17.00;99.90;;;;;;5031092;28;19927;-75
2023/08/09 07:18:09;;;;;;;;;;;17.10;99.90;;;;;;5031827;28;19924;-75
2023/08/09 07:20:37;;;;;;;;;;;17.20;99.90;;;;;;5035042;28;19925;-75
2023/08/09 07:23:04;;;;;;;;;;;17.30;99.90;;;;;;5035146;28;19983;-75
2023/08/09 07:25:32;;;;;;;;;;;17.40;99.90;;;;;;5035037;28;19921;-75
2023/08/09 07:28:02;;;;;;;;;;;17.40;99.90;;;;;;5034932;28;19970;-75
2023/08/09 07:30:30;;;;;;;;;;;17.50;99.90;;;;;;5025004;28;19948;-75
2023/08/09 07:32:58;;;;;;;;;;;17.50;99.90;;;;;;5034723;28;19921;-75
2023/08/09 07:35:26;;;;;;;;;;;17.60;99.90;;;;;;5034860;28;20465;-75
2023/08/09 07:37:54;;;;;;;;;;;17.70;99.90;;;;;;5034506;28;20012;-75
2023/08/09 07:40:21;;;;;;;;;;;17.60;99.90;;;;;;5034560;28;20461;-75
2023/08/09 07:42:49;;;;;;;;;;;17.60;99.90;;;;;;5034406;28;19948;-75
2023/08/09 07:45:18;;;;;;;;;;;17.60;99.90;;;;;;5034657;28;19925;-75
2023/08/09 07:47:47;;;;;;;;;;;17.40;99.90;;;;;;5034532;28;20311;-74
2023/08/09 07:50:15;;;;;;;;;;;17.10;99.90;;;;;;5034424;28;19967;-75
2023/08/09 07:52:43;;;;;;;;;;;16.70;99.90;;;;;;5033905;28;19921;-75
2023/08/09 07:55:11;;;;;;;;;;;16.60;99.90;;;;;;5034804;28;19921;-75
2023/08/09 07:57:39;;;;;;;;;;;16.30;99.90;;;;;;5034047;28;19936;-75
2023/08/09 08:00:11;;;;;;;;;;;16.20;99.90;;;;;;5020077;28;19930;-74
2023/08/09 08:02:44;;;;;;;;;;;16.10;99.90;;;;;;5023138;28;20404;-74
2023/08/09 08:05:12;;;;;;;;;;;16.00;99.90;;;;;;5034471;28;19975;-74
2023/08/09 08:07:40;;;;;;;;;;;15.90;99.90;;;;;;5033902;28;20419;-71
2023/08/09 08:10:09;;;;;;;;;;;15.80;99.90;;;;;;5033860;28;19925;-71
2023/08/09 08:12:37;;;;;;;;;;;15.70;99.90;;;;;;5033828;28;20012;-71
2023/08/09 08:15:06;;;;;;;;;;;15.70;99.90;;;;;;5017882;28;19921;-71
2023/08/09 08:17:34;;;;;;;;;;;15.60;99.90;;;;;;5033973;28;19925;-71
2023/08/09 08:20:06;;;;;;;;;;;15.50;99.90;;;;;;5033869;28;20371;-71
2023/08/09 08:22:34;;;;;;;;;;;15.50;99.90;;;;;;5034067;28;19921;-71
2023/08/09 08:25:01;;;;;;;;;;;15.40;99.90;;;;;;5033557;28;19924;-71
2023/08/09 08:27:29;;;;;;;;;;;15.40;99.90;;;;;;5033853;28;19928;-71
2023/08/09 08:29:57;;;;;;;;;;;15.30;99.90;;;;;;5020734;28;19928;-70
2023/08/09 08:32:25;;;;;;;;;;;15.30;99.90;;;;;;5020152;28;19987;-70
2023/08/09 08:34:55;;;;;;;;;;;15.40;99.90;;;;;;5033386;28;19967;-70
2023/08/09 08:37:24;;;;;;;;;;;15.50;99.90;;;;;;5033779;28;20294;-70
2023/08/09 08:39:52;;;;;;;;;;;15.50;99.90;;;;;;5033187;28;20392;-70
2023/08/09 08:42:20;;;;;;;;;;;15.50;99.90;;;;;;5033477;28;19921;-71
2023/08/09 08:44:48;;;;;;;;;;;15.60;99.90;;;;;;5033132;28;19925;-70
2023/08/09 08:47:16;;;;;;;;;;;15.60;99.90;;;;;;5033603;28;19921;-70
2023/08/09 08:49:49;;;;;;;;;;;15.80;99.90;;;;;;5033219;28;20287;-70
2023/08/09 08:52:17;;;;;;;;;;;15.90;99.90;;;;;;5033034;28;20407;-71
2023/08/09 08:54:46;;;;;;;;;;;16.10;99.90;;;;;;5032951;28;19987;-70
2023/08/09 08:57:14;;;;;;;;;;;16.30;99.90;;;;;;5033336;28;20339;-71
2023/08/09 08:59:42;;;;;;;;;;;16.50;99.90;;;;;;5022462;28;20335;-71
2023/08/09 09:02:09;;;;;;;;;;;16.70;99.90;;;;;;5008780;28;19921;-72
2023/08/09 09:04:38;;;;;;;;;;;16.70;99.90;;;;;;5033015;28;19928;-71
2023/08/09 09:07:07;;;;;;;;;;;17.00;99.90;;;;;;5032987;28;19928;-72
2023/08/09 09:09:43;;;;;;;;;;;17.20;99.90;;;;;;5032943;28;19928;-71
2023/08/09 09:12:12;;;;;;;;;;;17.30;99.90;;;;;;5025069;28;20415;-72
2023/08/09 09:14:40;;;;;;;;;;;17.40;99.90;;;;;;5032747;28;20300;-71
2023/08/09 09:17:08;;;;;;;;;;;17.40;99.90;;;;;;5032852;28;19921;-72
2023/08/09 09:19:36;;;;;;;;;;;17.30;99.90;;;;;;5032779;28;19931;-73
2023/08/09 09:22:04;;;;;;;;;;;17.30;99.90;;;;;;5032717;28;20317;-72
2023/08/09 09:24:35;;;;;;;;;;;17.30;99.90;;;;;;5032641;28;20007;-73
2023/08/09 09:27:03;;;;;;;;;;;17.30;99.90;;;;;;5032651;28;19960;-72
2023/08/09 09:29:33;;;;;;;;;;;17.30;99.90;;;;;;5023373;28;20398;-73
2023/08/09 09:32:06;;;;;;;;;;;17.40;99.90;;;;;;5014402;28;19961;-72
2023/08/09 09:34:35;;;;;;;;;;;17.50;99.90;;;;;;5032450;28;19921;-72
2023/08/09 09:37:03;;;;;;;;;;;17.60;99.90;;;;;;5032477;28;20300;-73
2023/08/09 09:39:31;;;;;;;;;;;17.60;99.90;;;;;;5032225;28;19966;-72
2023/08/09 09:41:59;;;;;;;;;;;17.50;99.90;;;;;;5031834;28;20383;-73
2023/08/09 09:44:26;;;;;;;;;;;17.60;99.90;;;;;;5032153;28;19931;-72
2023/08/09 09:46:57;;;;;;;;;;;17.60;99.90;;;;;;5032197;28;19921;-73
2023/08/09 09:49:25;;;;;;;;;;;17.70;99.90;;;;;;5032168;28;20055;-73
2023/08/09 09:51:54;;;;;;;;;;;17.80;99.90;;;;;;5032058;28;19983;-73
2023/08/09 09:54:23;;;;;;;;;;;18.00;99.90;;;;;;5048531;22;19929;-71
2023/08/09 09:56:50;;;;;;;;;;;18.20;99.90;;;;;;5031671;28;19925;-70
2023/08/09 09:59:18;;;;;;;;;;;18.20;99.90;;;;;;5024565;28;20296;-71
2023/08/09 10:01:47;;;;;;;;;;;17.90;99.90;;;;;;5012416;28;19968;-70
2023/08/09 10:04:17;;;;;;;;;;;17.90;99.90;;;;;;5016020;28;19961;-71
2023/08/09 10:06:47;;;;;;;;;;;17.90;99.90;;;;;;5031776;28;19921;-71
2023/08/09 10:09:16;;;;;;;;;;;18.00;99.90;;;;;;5031605;28;19928;-71
2023/08/09 10:11:45;;;;;;;;;;;18.20;99.90;;;;;;5032188;28;19979;-71
2023/08/09 10:14:14;;;;;;;;;;;18.40;99.90;;;;;;5031771;28;19920;-71
2023/08/09 10:16:43;;;;;;;;;;;18.70;99.90;;;;;;5031641;28;19921;-71
2023/08/09 10:19:13;;;;;;;;;;;19.10;99.90;;;;;;5031636;28;19929;-72
2023/08/09 10:21:42;;;;;;;;;;;19.50;99.90;;;;;;5031676;28;19921;-72
2023/08/09 10:24:12;;;;;;;;;;;19.90;99.90;;;;;;5031634;28;19921;-72
2023/08/09 10:26:40;;;;;;;;;;;20.40;99.90;;;;;;5031707;28;20295;-72
2023/08/09 10:29:10;;;;;;;;;;;20.70;99.90;;;;;;5025739;28;20351;-72
2023/08/09 10:31:46;;;;;;;;;;;20.80;99.90;;;;;;5011337;28;19956;-72
2023/08/09 10:34:14;;;;;;;;;;;20.80;99.90;;;;;;5011536;28;19988;-72
2023/08/09 10:36:48;;;;;;;;;;;20.80;99.90;;;;;;5012067;28;20431;-72
2023/08/09 10:39:17;;;;;;;;;;;20.80;99.90;;;;;;5011475;28;20292;-73
2023/08/09 10:41:55;;;;;;;;;;;20.90;99.90;;;;;;5012028;28;19921;-72
2023/08/09 10:44:37;;;;;;;;;;;21.20;99.90;;;;;;5011804;28;20020;-72
2023/08/09 10:47:06;;;;;;;;;;;21.20;99.90;;;;;;5011685;28;19921;-72
2023/08/09 10:49:35;;;;;;;;;;;21.20;99.90;;;;;;5011566;28;20291;-73
2023/08/09 10:52:13;;;;;;;;;;;21.50;99.90;;;;;;5011269;28;20297;-72
2023/08/09 10:54:46;;;;;;;;;;;21.70;99.90;;;;;;4972443;28;20382;-73
2023/08/09 10:57:14;;;;;;;;;;;21.90;99.90;;;;;;4972590;28;19925;-73
2023/08/09 10:59:43;;;;;;;;;;;22.10;99.90;;;;;;4972554;28;19928;-73
2023/08/09 11:02:11;;;;;;;;;;;22.10;99.90;;;;;;4974728;28;19926;-73
2023/08/09 11:04:39;;;;;;;;;;;21.90;99.90;;;;;;4991972;28;19921;-73
2023/08/09 11:07:07;;;;;;;;;;;22.00;99.90;;;;;;4991649;28;19922;-73
2023/08/09 11:09:36;;;;;;;;;;;22.10;99.90;;;;;;4991824;28;19922;-73
2023/08/09 11:12:06;;;;;;;;;;;22.10;99.90;;;;;;4991833;28;19926;-73
2023/08/09 11:14:34;;;;;;;;;;;22.10;99.90;;;;;;4991749;28;19922;-73
2023/08/09 11:17:02;;;;;;;;;;;22.20;99.90;;;;;;4991621;28;20370;-73
2023/08/09 11:19:31;;;;;;;;;;;22.20;99.90;;;;;;4991780;28;20312;-74
2023/08/09 11:22:03;;;;;;;;;;;22.10;99.90;;;;;;4991687;28;20340;-74
2023/08/09 11:24:31;;;;;;;;;;;21.80;99.90;;;;;;4991744;28;19925;-74
2023/08/09 11:27:00;;;;;;;;;;;21.80;99.90;;;;;;4991723;28;20337;-73
2023/08/09 11:29:28;;;;;;;;;;;21.50;99.90;;;;;;4983232;28;20278;-73
2023/08/09 11:31:57;;;;;;;;;;;21.30;99.90;;;;;;4972412;28;19929;-73
2023/08/09 11:34:26;;;;;;;;;;;21.40;99.90;;;;;;4976679;28;19949;-74
2023/08/09 11:36:55;;;;;;;;;;;21.30;99.90;;;;;;4991752;28;19928;-74
2023/08/09 11:39:24;;;;;;;;;;;21.40;99.90;;;;;;4975769;28;20436;-74
2023/08/09 11:41:54;;;;;;;;;;;21.60;99.90;;;;;;4992068;28;19926;-74
2023/08/09 11:44:26;;;;;;;;;;;21.70;99.90;;;;;;4991738;28;19928;-74
2023/08/09 11:46:54;;;;;;;;;;;21.70;99.90;;;;;;4992279;28;19928;-74
2023/08/09 11:49:25;;;;;;;;;;;21.70;99.90;;;;;;4991525;28;19925;-74
2023/08/09 11:51:53;;;;;;;;;;;21.60;99.90;;;;;;4992261;28;19949;-74
2023/08/09 11:54:21;;;;;;;;;;;21.70;99.90;;;;;;5024269;28;19936;-74
2023/08/09 11:56:49;;;;;;;;;;;21.80;99.90;;;;;;5030929;28;19922;-74
2023/08/09 11:59:17;;;;;;;;;;;21.90;99.90;;;;;;5023422;28;19925;-75
2023/08/09 12:01:47;;;;;;;;;;;22.00;99.90;;;;;;5011393;28;19921;-74
2023/08/09 12:04:17;;;;;;;;;;;22.10;99.90;;;;;;5030468;28;19936;-74
2023/08/09 12:06:46;;;;;;;;;;;22.30;99.90;;;;;;5034246;28;19921;-75
2023/08/09 12:09:30;;;;;;;;;;;22.40;99.90;;;;;;5034843;28;19928;-75
2023/08/09 12:12:05;;;;;;;;;;;22.30;99.90;;;;;;5034312;28;20308;-74
2023/08/09 12:14:34;;;;;;;;;;;22.20;99.90;;;;;;5020298;28;19967;-75
2023/08/09 12:17:04;;;;;;;;;;;22.20;99.90;;;;;;5033750;28;20383;-74
2023/08/09 12:19:31;;;;;;;;;;;22.10;99.90;;;;;;5033951;28;20044;-75
2023/08/09 12:22:00;;;;;;;;;;;22.20;99.90;;;;;;5034195;28;19921;-75
2023/08/09 12:24:28;;;;;;;;;;;22.10;99.90;;;;;;5033872;28;20008;-74
2023/08/09 12:26:57;;;;;;;;;;;22.10;99.90;;;;;;5034014;28;19928;-74
2023/08/09 12:29:25;;;;;;;;;;;22.20;99.90;;;;;;5028266;28;19932;-74
2023/08/09 12:31:53;;;;;;;;;;;22.30;99.90;;;;;;5025654;28;19928;-74
2023/08/09 12:34:22;;;;;;;;;;;22.60;99.90;;;;;;5033510;28;20293;-74
2023/08/09 12:36:50;;;;;;;;;;;22.70;99.90;;;;;;5033780;28;19921;-74
2023/08/09 12:39:17;;;;;;;;;;;22.80;99.90;;;;;;5033556;28;19932;-75
2023/08/09 12:41:45;;;;;;;;;;;22.80;99.90;;;;;;5033970;28;20379;-74
2023/08/09 12:44:13;;;;;;;;;;;22.80;99.90;;;;;;5033796;28;19921;-74
2023/08/09 12:46:41;;;;;;;;;;;22.80;99.90;;;;;;5033481;28;19921;-74
2023/08/09 12:49:10;;;;;;;;;;;22.90;99.90;;;;;;5033231;28;19921;-75
2023/08/09 12:51:39;;;;;;;;;;;22.70;99.90;;;;;;5033512;28;19927;-73
2023/08/09 12:54:09;;;;;;;;;;;22.40;99.90;;;;;;5033006;28;19947;-74
2023/08/09 12:56:37;;;;;;;;;;;22.00;99.90;;;;;;5033548;28;20384;-74
2023/08/09 12:59:05;;;;;;;;;;;21.90;99.90;;;;;;5027865;28;19928;-74
2023/08/09 13:01:33;;;;;;;;;;;21.90;99.90;;;;;;5013588;28;19921;-74
2023/08/09 13:04:01;;;;;;;;;;;21.90;99.90;;;;;;5029173;28;19975;-74
2023/08/09 13:06:29;;;;;;;;;;;21.80;99.90;;;;;;5033335;28;19978;-74
2023/08/09 13:08:59;;;;;;;;;;;21.70;99.90;;;;;;5033238;28;19944;-75
2023/08/09 13:11:27;;;;;;;;;;;21.70;99.90;;;;;;5033192;28;19929;-74
2023/08/09 13:13:58;;;;;;;;;;;21.60;99.90;;;;;;5033072;28;19921;-75
2023/08/09 13:16:29;;;;;;;;;;;21.50;99.90;;;;;;5029149;28;20380;-75
2023/08/09 13:18:57;;;;;;;;;;;21.40;99.90;;;;;;5028076;28;19921;-75
2023/08/09 13:21:25;;;;;;;;;;;21.30;99.90;;;;;;5032804;28;19967;-75
2023/08/09 13:23:52;;;;;;;;;;;21.30;99.90;;;;;;5032788;28;20303;-75
2023/08/09 13:26:23;;;;;;;;;;;21.30;99.90;;;;;;5032771;28;19971;-75
2023/08/09 13:28:51;;;;;;;;;;;21.30;99.90;;;;;;5029444;28;19922;-75
2023/08/09 13:31:19;;;;;;;;;;;21.30;99.90;;;;;;5020851;28;19921;-75
2023/08/09 13:33:46;;;;;;;;;;;21.50;99.90;;;;;;5026243;28;20048;-75
2023/08/09 13:36:14;;;;;;;;;;;21.60;99.90;;;;;;5032953;28;20394;-74
2023/08/09 13:38:42;;;;;;;;;;;21.70;99.90;;;;;;5032669;28;20388;-75
2023/08/09 13:41:10;;;;;;;;;;;21.70;99.90;;;;;;5032555;28;19927;-75
2023/08/09 13:43:39;;;;;;;;;;;21.70;99.90;;;;;;5032465;28;19983;-75
2023/08/09 13:46:07;;;;;;;;;;;21.70;99.90;;;;;;5032509;28;19929;-74
2023/08/09 13:48:37;;;;;;;;;;;21.70;99.90;;;;;;5032384;28;19921;-75
2023/08/09 13:51:05;;;;;;;;;;;21.60;99.90;;;;;;5032608;28;19921;-75
2023/08/09 13:53:33;;;;;;;;;;;21.50;99.90;;;;;;5031915;28;19927;-74
2023/08/09 13:56:01;;;;;;;;;;;21.40;99.90;;;;;;5032283;28;19921;-75
2023/08/09 13:58:28;;;;;;;;;;;21.30;99.90;;;;;;5031472;28;19921;-74
2023/08/09 14:00:58;;;;;;;;;;;21.10;99.90;;;;;;5012571;28;20299;-74
2023/08/09 14:03:26;;;;;;;;;;;21.10;99.90;;;;;;5022407;28;20020;-75
2023/08/09 14:05:54;;;;;;;;;;;21.20;99.90;;;;;;5024294;28;19971;-75
2023/08/09 14:08:22;;;;;;;;;;;21.20;99.90;;;;;;5031869;28;19928;-75
2023/08/09 14:10:50;;;;;;;;;;;21.30;99.90;;;;;;5032066;28;19921;-74
2023/08/09 14:13:18;;;;;;;;;;;21.30;99.90;;;;;;5031997;28;19925;-74
2023/08/09 14:15:48;;;;;;;;;;;21.20;99.90;;;;;;5023782;28;20303;-75
2023/08/09 14:18:18;;;;;;;;;;;21.30;99.90;;;;;;5031637;28;20012;-75
2023/08/09 14:20:47;;;;;;;;;;;21.30;99.90;;;;;;5031937;28;19921;-74
2023/08/09 14:23:14;;;;;;;;;;;21.50;99.90;;;;;;5031554;28;19932;-74